Few Clouds Current Weather (METAR) For Manchester Airport

All times on the weather descriptions are local

Observed at 08:20 - (14 mins ago)

Few Clouds

1°C

Few Clouds
Clouds: Few Clouds at 1,800ft
Wind: 180° at 07 knots
Visibility: Greater than 10km
QNH: 1003
Dew Point: 0°C
Runway in Use: Runways 23L/R

Sunrise Today: 07:33
Sunset Today: 17:13

Forecast Weather (TAF) For Manchester Airport

Issued at 00:00 - (18 days ago)


Runway in Use: Likely Runways 23L/R

Forecast valid until 00:00 on Monday

METAR/TAF RAW METAR / TAF

EGCC 110820Z 18007KT 9999 FEW018 01/00 Q1003 NOSIG

Weather Widget

Put weather from any of our airports on your website with our weather widget.

Find Another Search

Airport Search


Please Wait Please Wait - Loading
Close
Close

Login

Username:

Password:

Remember Me:

Remember me on this computer

Forgotten your password? Get a reset password sent to your registered e-mail address

Close

User Private Message

Subject:

Message: